Arrantzale — EBVT — position and weather

sailwx.info

Track history (hours):
 
Tides and Currents Weather Stations Pressure Air Temp Water Temp Dewpoint Dewpoint Depression Visibility Wind Speed Wind Dir Waves Ship Positions

Arrantzale

Last reported at 2017-Oct-20 08:39 UTC. Time now 2017-Oct-22 06:44 UTC.
Position N 43°23' W 001°47'.

Length 32 m.

Type: Fishing. MMSI: 224065290.

Date/timePositionNaut miles runAvg speedWind from/ knotsBaromVisibWave heightAir tempDewpointWater temp
2017-Oct-20 08:39N 43°23' W 001°47'0 0.0
2017-Oct-20 08:31N 43°23' W 001°47'0 0.0
2017-Oct-20 08:00N 43°23' W 001°47'0 0.0
2017-Oct-20 07:31N 43°23' W 001°47'0 0.0
2017-Oct-20 06:59N 43°23' W 001°47'0 0.0
2017-Oct-20 06:31N 43°23' W 001°47'0 0.0
2017-Oct-19 10:17N 43°23' W 001°47'0 0.0
2017-Oct-19 10:00N 43°23' W 001°47'0 0.2
2017-Oct-19 09:30N 43°23' W 001°48'0 0.0
2017-Oct-19 09:00N 43°23' W 001°48'0 0.0
2017-Oct-19 08:30N 43°23' W 001°48'0 0.0
2017-Oct-19 08:00N 43°23' W 001°48'0 0.0
2017-Oct-19 07:30N 43°23' W 001°48'0 0.0
2017-Oct-19 07:00N 43°23' W 001°48'0 0.0
2017-Oct-19 06:30N 43°23' W 001°48'0 0.0
2017-Oct-19 06:00N 43°23' W 001°48'0 0.0
2017-Oct-19 05:30N 43°23' W 001°48'0 0.0
2017-Oct-19 05:00N 43°23' W 001°48'0 0.0
2017-Oct-18 12:08N 43°23' W 001°48'0 0.0
2017-Oct-18 12:00N 43°23' W 001°48'0 0.0
2017-Oct-18 11:30N 43°23' W 001°48'0 0.0
2017-Oct-18 11:00N 43°23' W 001°48'0 0.0
2017-Oct-18 10:30N 43°23' W 001°48'0 0.0
2017-Oct-18 10:00N 43°23' W 001°48'0 0.0
2017-Oct-18 09:29N 43°23' W 001°48'0 0.0
2017-Oct-18 09:00N 43°23' W 001°48'0 0.0
2017-Oct-18 08:30N 43°23' W 001°48'0 0.0
2017-Oct-18 08:00N 43°23' W 001°48'0 0.0
2017-Oct-18 07:28N 43°23' W 001°48'0 0.0
2017-Oct-18 06:56N 43°23' W 001°48'0 0.0
2017-Oct-18 06:29N 43°23' W 001°48'0 0.0
2017-Oct-18 06:00N 43°23' W 001°48'0 0.0
2017-Oct-18 05:29N 43°23' W 001°48'0 0.0
2017-Oct-18 05:00N 43°23' W 001°48'0 0.0
2017-Oct-17 09:57N 43°23' W 001°48'0 0.0
2017-Oct-17 09:30N 43°23' W 001°48'0 0.0
2017-Oct-17 09:00N 43°23' W 001°48'0 0.0
2017-Oct-17 08:30N 43°23' W 001°48'0 0.0
2017-Oct-17 08:00N 43°23' W 001°48'0 0.0
2017-Oct-17 07:31N 43°23' W 001°48'0 0.0
2017-Oct-17 07:00N 43°23' W 001°48'0 0.0
2017-Oct-17 06:30N 43°23' W 001°48'0 0.0
2017-Oct-17 06:00N 43°23' W 001°48'0 0.0
2017-Oct-17 05:30N 43°23' W 001°48'0 0.0
2017-Oct-17 05:00N 43°23' W 001°48'0 0.0
2017-Oct-17 04:30N 43°23' W 001°48'0 0.0
2017-Oct-17 04:01N 43°23' W 001°48'0 0.0
2017-Oct-17 03:30N 43°23' W 001°48'0 0.0
2017-Oct-17 03:01N 43°23' W 001°48'0 0.0
2017-Oct-17 02:30N 43°23' W 001°48'0 0.0
2017-Oct-17 02:00N 43°23' W 001°48'0 0.0
2017-Oct-17 01:30N 43°23' W 001°48'0 0.0
2017-Oct-17 01:00N 43°23' W 001°48'0 0.0
2017-Oct-17 00:30N 43°23' W 001°48'0 0.0
2017-Oct-17 00:00N 43°23' W 001°48'0 0.0
2017-Oct-16 23:30N 43°23' W 001°48'0 0.0
2017-Oct-16 23:00N 43°23' W 001°48'0 0.0
2017-Oct-16 22:30N 43°23' W 001°48'0 0.0
2017-Oct-16 22:00N 43°23' W 001°48'0 0.0
2017-Oct-16 21:30N 43°23' W 001°48'0 0.0
2017-Oct-16 21:00N 43°23' W 001°48'0 0.0
2017-Oct-16 20:30N 43°23' W 001°48'0 0.0
2017-Oct-16 20:00N 43°23' W 001°48'0 0.0
2017-Oct-16 19:30N 43°23' W 001°48'0 0.0
2017-Oct-16 19:00N 43°23' W 001°48'1 2.8
2017-Oct-16 18:30N 43°25' W 001°48'510.1
2017-Oct-16 18:00N 43°29' W 001°49'4 8.0
2017-Oct-16 17:31N 43°33' W 001°51'1 2.5
2017-Oct-16 17:01N 43°34' W 001°52'2 3.8
2017-Oct-16 16:30N 43°36' W 001°51'1 2.0
2017-Oct-16 16:01N 43°36' W 001°50'1 1.8
2017-Oct-16 15:31N 43°35' W 001°49'3 6.1
2017-Oct-16 15:01N 43°34' W 001°53'2 1.9
2017-Oct-16 14:01N 43°36' W 001°54'4 8.6
2017-Oct-16 13:30N 43°36' W 001°48'1 1.6
2017-Oct-16 13:01N 43°35' W 001°48'3 5.6
2017-Oct-16 12:31N 43°36' W 001°52'5 9.6
2017-Oct-16 12:00N 43°32' W 001°57'3 6.6
2017-Oct-16 11:30N 43°32' W 002°01'2 4.7
2017-Oct-16 11:01N 43°31' W 002°04'2 3.8
2017-Oct-16 10:31N 43°31' W 002°07'4 8.9
2017-Oct-16 10:01N 43°30' W 002°13'3 6.6
2017-Oct-16 09:31N 43°33' W 002°10'1 2.5
2017-Oct-16 09:01N 43°33' W 002°08'5 9.1
2017-Oct-16 08:31N 43°35' W 002°02'5 9.8
2017-Oct-16 08:00N 43°35' W 001°56'510.2
2017-Oct-16 07:31N 43°37' W 001°49'2 3.2
2017-Oct-16 07:01N 43°36' W 001°50'3 5.6
2017-Oct-16 06:31N 43°33' W 001°49'5 9.2
2017-Oct-16 06:01N 43°28' W 001°48'5 9.1
2017-Oct-16 05:31N 43°24' W 001°47'1 2.1
2017-Oct-16 05:00N 43°23' W 001°47'0 0.0
2017-Oct-16 04:30N 43°23' W 001°48'0 0.0
2017-Oct-16 04:00N 43°23' W 001°48'0 0.1
2017-Oct-16 03:30N 43°23' W 001°47'0 0.0
2017-Oct-16 03:01N 43°23' W 001°47'0 0.2
2017-Oct-16 02:30N 43°23' W 001°48'0 0.0
2017-Oct-16 02:00N 43°23' W 001°48'0 0.0
2017-Oct-16 01:30N 43°23' W 001°48'0 0.0
2017-Oct-16 01:00N 43°23' W 001°48'0 0.0
2017-Oct-16 00:30N 43°23' W 001°48'0 0.0
2017-Oct-16 00:00N 43°23' W 001°48'0 0.0
2017-Oct-15 23:30N 43°23' W 001°48'0 0.0
2017-Oct-15 23:01N 43°23' W 001°48'0 0.0
2017-Oct-15 22:31N 43°23' W 001°48'0 0.0
2017-Oct-15 22:01N 43°23' W 001°48'0 0.0
2017-Oct-15 21:30N 43°23' W 001°48'0 0.0
2017-Oct-15 21:00N 43°23' W 001°48'0 0.0
2017-Oct-15 20:31N 43°23' W 001°48'0 0.0
2017-Oct-15 20:00N 43°23' W 001°48'0 0.0
2017-Oct-15 19:30N 43°23' W 001°48'0 0.0
2017-Oct-15 19:00N 43°23' W 001°48'0 0.0
2017-Oct-15 18:30N 43°23' W 001°48'0 0.0
2017-Oct-15 18:00N 43°23' W 001°48'0 0.0
2017-Oct-15 17:30N 43°23' W 001°48'0 0.0
2017-Oct-15 17:00N 43°23' W 001°48'0 0.0
2017-Oct-15 16:31N 43°23' W 001°48'0 0.0
2017-Oct-15 16:00N 43°23' W 001°48'0 0.0
2017-Oct-15 15:30N 43°23' W 001°48'0 0.0
2017-Oct-15 15:00N 43°23' W 001°48'0 0.0
2017-Oct-15 14:01N 43°23' W 001°48'0 0.0
2017-Oct-15 13:30N 43°23' W 001°48'0 0.0
2017-Oct-15 13:00N 43°23' W 001°48'0 0.0
2017-Oct-15 12:30N 43°23' W 001°48'0 0.0
2017-Oct-15 12:00N 43°23' W 001°48'0 0.0
2017-Oct-15 11:30N 43°23' W 001°48'0 0.0
2017-Oct-15 11:00N 43°23' W 001°48'0 0.0
2017-Oct-15 10:30N 43°23' W 001°48'0 0.0
2017-Oct-15 10:01N 43°23' W 001°48'0 0.0
2017-Oct-15 09:30N 43°23' W 001°48'0 0.0
2017-Oct-15 09:00N 43°23' W 001°48'0 0.0
2017-Oct-15 08:30N 43°23' W 001°48'0 0.0
2017-Oct-15 08:01N 43°23' W 001°48'0 0.0
2017-Oct-15 07:30N 43°23' W 001°48'0 0.0
2017-Oct-15 07:01N 43°23' W 001°48'0 0.0
2017-Oct-15 06:30N 43°23' W 001°48'0 0.0
2017-Oct-15 06:01N 43°23' W 001°48'0 0.0
2017-Oct-15 05:30N 43°23' W 001°48'0 0.0
2017-Oct-15 05:00N 43°23' W 001°48'0 0.0
2017-Oct-15 04:30N 43°23' W 001°48'0 0.0
2017-Oct-15 04:00N 43°23' W 001°48'0 0.0
2017-Oct-15 03:31N 43°23' W 001°48'0 0.0
2017-Oct-15 03:00N 43°23' W 001°48'0 0.0
2017-Oct-15 02:30N 43°23' W 001°48'0 0.0
2017-Oct-15 02:01N 43°23' W 001°48'0 0.0
2017-Oct-15 01:30N 43°23' W 001°48'0 0.0
2017-Oct-15 01:01N 43°23' W 001°48'0 0.0
2017-Oct-15 00:31N 43°23' W 001°48'0 0.0
2017-Oct-15 00:00N 43°23' W 001°48'0 0.0
2017-Oct-14 23:30N 43°23' W 001°48'0 0.0
2017-Oct-14 23:00N 43°23' W 001°48'0 0.0
2017-Oct-14 22:31N 43°23' W 001°48'0 0.0
2017-Oct-14 22:01N 43°23' W 001°48'0 0.0
2017-Oct-14 21:31N 43°23' W 001°48'0 0.0
2017-Oct-14 21:00N 43°23' W 001°48'0 0.0
2017-Oct-14 20:30N 43°23' W 001°48'0 0.0
2017-Oct-14 20:00N 43°23' W 001°48'0 0.0
2017-Oct-14 19:30N 43°23' W 001°48'0 0.0
2017-Oct-14 19:01N 43°23' W 001°48'0 0.0
2017-Oct-14 18:30N 43°23' W 001°48'0 0.0
2017-Oct-14 18:00N 43°23' W 001°48'0 0.0
2017-Oct-14 17:30N 43°23' W 001°48'0 0.0
2017-Oct-14 17:00N 43°23' W 001°48'0 0.0
2017-Oct-14 16:30N 43°23' W 001°48'0 0.0
2017-Oct-14 16:01N 43°23' W 001°48'0 0.0
2017-Oct-14 15:30N 43°23' W 001°48'0 0.0
2017-Oct-14 15:01N 43°23' W 001°48'0 0.0
2017-Oct-14 14:31N 43°23' W 001°48'0 0.0
2017-Oct-14 14:00N 43°23' W 001°48'0 0.0
2017-Oct-14 13:30N 43°23' W 001°48'0 0.0
2017-Oct-14 13:00N 43°23' W 001°48'0 0.0
2017-Oct-14 12:30N 43°23' W 001°48'0 0.0
2017-Oct-14 11:59N 43°23' W 001°48'0 0.0
2017-Oct-14 11:31N 43°23' W 001°48'0 0.0
2017-Oct-14 11:00N 43°23' W 001°48'0 0.0
2017-Oct-14 10:30N 43°23' W 001°48'0 0.0
2017-Oct-14 10:00N 43°23' W 001°48'0 0.0
2017-Oct-14 09:31N 43°23' W 001°48'0 0.0
2017-Oct-14 09:01N 43°23' W 001°48'0 0.0
2017-Oct-14 08:30N 43°23' W 001°48'0 0.0
2017-Oct-14 08:01N 43°23' W 001°48'0 0.0
2017-Oct-14 07:30N 43°23' W 001°48'1 2.0
2017-Oct-14 07:01N 43°24' W 001°48'5 9.9
2017-Oct-14 06:31N 43°23' W 001°54'5 9.6
2017-Oct-14 06:01N 43°21' W 002°01'5 9.5
2017-Oct-14 05:31N 43°20' W 002°07'4 7.1
2017-Oct-14 05:01N 43°19' W 002°11'0 0.1
2017-Oct-14 04:30N 43°19' W 002°12'0 0.1
2017-Oct-14 04:00N 43°19' W 002°12'0 0.1
2017-Oct-14 03:30N 43°19' W 002°11'0 0.1
2017-Oct-14 03:00N 43°19' W 002°11'0 0.2
2017-Oct-14 02:30N 43°19' W 002°11'0 0.1
2017-Oct-14 02:00N 43°19' W 002°11'0 0.3
2017-Oct-14 01:30N 43°19' W 002°11'0 0.1
2017-Oct-14 01:01N 43°19' W 002°11'0 0.0
2017-Oct-14 00:30N 43°19' W 002°11'0 0.0
2017-Oct-14 00:00N 43°19' W 002°11'0 0.1
2017-Oct-13 23:31N 43°19' W 002°11'0 0.0
2017-Oct-13 23:01N 43°19' W 002°11'0 0.0
2017-Oct-13 22:31N 43°19' W 002°11'0 0.0
2017-Oct-13 22:00N 43°19' W 002°11'0 0.0
2017-Oct-13 21:31N 43°19' W 002°11'0 0.0
2017-Oct-13 21:00N 43°19' W 002°11'0 0.0
2017-Oct-13 20:30N 43°19' W 002°11'0 0.0
2017-Oct-13 20:00N 43°19' W 002°11'0 0.0
2017-Oct-13 19:31N 43°19' W 002°11'0 0.0
2017-Oct-13 19:01N 43°19' W 002°11'0 0.0
2017-Oct-13 18:30N 43°19' W 002°11'0 0.0
2017-Oct-13 18:00N 43°19' W 002°11'0 0.0
2017-Oct-13 17:31N 43°19' W 002°11'0 0.0
2017-Oct-13 17:01N 43°19' W 002°11'0 0.0
2017-Oct-13 16:31N 43°19' W 002°11'0 0.0
2017-Oct-13 16:01N 43°19' W 002°11'0 0.0
2017-Oct-13 15:31N 43°19' W 002°11'0 0.1
2017-Oct-13 15:01N 43°19' W 002°11'4 9.0
2017-Oct-13 14:30N 43°22' W 002°07'5 9.7
2017-Oct-13 14:01N 43°26' W 002°04'4 9.0
2017-Oct-13 13:31N 43°31' W 002°02'4 7.9
2017-Oct-13 13:01N 43°34' W 002°04'510.2
2017-Oct-13 12:30N 43°39' W 002°08'1 1.5
2017-Oct-13 12:01N 43°38' W 002°07'5 9.5
2017-Oct-13 11:31N 43°33' W 002°06'5 9.7
2017-Oct-13 11:01N 43°34' W 001°60'4 7.3
2017-Oct-13 10:31N 43°32' W 001°55'4 8.1
2017-Oct-13 10:00N 43°29' W 001°58'1 2.7
2017-Oct-13 09:30N 43°30' W 001°59'2 4.6
2017-Oct-13 09:01N 43°32' W 001°58'1 1.7
2017-Oct-13 08:31N 43°32' W 001°59'1 2.6
2017-Oct-13 08:01N 43°34' W 001°60'2 4.8
2017-Oct-13 07:31N 43°35' W 002°02'2 3.5
2017-Oct-13 07:01N 43°34' W 002°00'5 9.7
2017-Oct-13 06:31N 43°30' W 001°58'5 9.8
2017-Oct-13 06:01N 43°27' W 001°52'5 9.9
2017-Oct-13 05:31N 43°24' W 001°47'1 2.2
2017-Oct-13 05:01N 43°23' W 001°47'4 8.2
2017-Oct-13 04:31N 43°25' W 001°52'2 3.9
2017-Oct-13 04:00N 43°25' W 001°55'0 0.2
2017-Oct-13 03:31N 43°25' W 001°55'1 2.4
2017-Oct-13 03:00N 43°25' W 001°53'0 0.4
2017-Oct-13 02:30N 43°26' W 001°53'0 0.3
2017-Oct-13 02:00N 43°25' W 001°53'4 9.0
2017-Oct-13 01:31N 43°24' W 001°47'1 1.7
2017-Oct-13 01:00N 43°23' W 001°48'0 0.0
2017-Oct-13 00:30N 43°23' W 001°48'0 0.0
2017-Oct-13 00:00N 43°23' W 001°48'0 0.0
2017-Oct-12 23:29N 43°23' W 001°48'0 0.0
2017-Oct-12 23:00N 43°23' W 001°48'0 0.0
2017-Oct-12 22:30N 43°23' W 001°48'0 0.0
2017-Oct-12 22:00N 43°23' W 001°48'1 1.4
2017-Oct-12 21:31N 43°24' W 001°47'510.9
2017-Oct-12 21:01N 43°27' W 001°52'510.9
2017-Oct-12 20:31N 43°31' W 001°58'510.5
2017-Oct-12 20:00N 43°35' W 002°03'510.5
2017-Oct-12 19:31N 43°39' W 002°07'510.6
2017-Oct-12 19:01N 43°43' W 002°12'510.6
2017-Oct-12 18:31N 43°47' W 002°17'510.5
2017-Oct-12 18:01N 43°51' W 002°22'510.4
2017-Oct-12 17:31N 43°55' W 002°26'510.3
2017-Oct-12 17:00N 43°59' W 002°31'5 9.9
2017-Oct-12 16:31N 44°03' W 002°35'4 8.0
2017-Oct-12 16:00N 44°06' W 002°38'510.1
2017-Oct-12 15:30N 44°10' W 002°43'510.3
2017-Oct-12 15:01N 44°14' W 002°47'510.4
2017-Oct-12 14:30N 44°18' W 002°52'510.3
2017-Oct-12 14:00N 44°22' W 002°56'  
Track history (hours):
 
Tides and Currents Weather Stations Pressure Air Temp Water Temp Dewpoint Dewpoint Depression Visibility Wind Speed Wind Dir Waves Ship Positions

Arrantzale

Last reported at 2017-Oct-20 08:39 UTC. Time now 2017-Oct-22 06:44 UTC.
Position N 43°23' W 001°47'.

Length 32 m.

Type: Fishing. MMSI: 224065290.

Date/timePositionNaut miles runAvg speedWind from/ knotsBaromVisibWave heightAir tempDewpointWater temp
2017-Oct-20 08:39N 43°23' W 001°47'0 0.0
2017-Oct-20 08:31N 43°23' W 001°47'0 0.0
2017-Oct-20 08:00N 43°23' W 001°47'0 0.0
2017-Oct-20 07:31N 43°23' W 001°47'0 0.0
2017-Oct-20 06:59N 43°23' W 001°47'0 0.0
2017-Oct-20 06:31N 43°23' W 001°47'0 0.0
2017-Oct-19 10:17N 43°23' W 001°47'0 0.0
2017-Oct-19 10:00N 43°23' W 001°47'0 0.2
2017-Oct-19 09:30N 43°23' W 001°48'0 0.0
2017-Oct-19 09:00N 43°23' W 001°48'0 0.0
2017-Oct-19 08:30N 43°23' W 001°48'0 0.0
2017-Oct-19 08:00N 43°23' W 001°48'0 0.0
2017-Oct-19 07:30N 43°23' W 001°48'0 0.0
2017-Oct-19 07:00N 43°23' W 001°48'0 0.0
2017-Oct-19 06:30N 43°23' W 001°48'0 0.0
2017-Oct-19 06:00N 43°23' W 001°48'0 0.0
2017-Oct-19 05:30N 43°23' W 001°48'0 0.0
2017-Oct-19 05:00N 43°23' W 001°48'0 0.0
2017-Oct-18 12:08N 43°23' W 001°48'0 0.0
2017-Oct-18 12:00N 43°23' W 001°48'0 0.0
2017-Oct-18 11:30N 43°23' W 001°48'0 0.0
2017-Oct-18 11:00N 43°23' W 001°48'0 0.0
2017-Oct-18 10:30N 43°23' W 001°48'0 0.0
2017-Oct-18 10:00N 43°23' W 001°48'0 0.0
2017-Oct-18 09:29N 43°23' W 001°48'0 0.0
2017-Oct-18 09:00N 43°23' W 001°48'0 0.0
2017-Oct-18 08:30N 43°23' W 001°48'0 0.0
2017-Oct-18 08:00N 43°23' W 001°48'0 0.0
2017-Oct-18 07:28N 43°23' W 001°48'0 0.0
2017-Oct-18 06:56N 43°23' W 001°48'0 0.0
2017-Oct-18 06:29N 43°23' W 001°48'0 0.0
2017-Oct-18 06:00N 43°23' W 001°48'0 0.0
2017-Oct-18 05:29N 43°23' W 001°48'0 0.0
2017-Oct-18 05:00N 43°23' W 001°48'0 0.0
2017-Oct-17 09:57N 43°23' W 001°48'0 0.0
2017-Oct-17 09:30N 43°23' W 001°48'0 0.0
2017-Oct-17 09:00N 43°23' W 001°48'0 0.0
2017-Oct-17 08:30N 43°23' W 001°48'0 0.0
2017-Oct-17 08:00N 43°23' W 001°48'0 0.0
2017-Oct-17 07:31N 43°23' W 001°48'0 0.0
2017-Oct-17 07:00N 43°23' W 001°48'0 0.0
2017-Oct-17 06:30N 43°23' W 001°48'0 0.0
2017-Oct-17 06:00N 43°23' W 001°48'0 0.0
2017-Oct-17 05:30N 43°23' W 001°48'0 0.0
2017-Oct-17 05:00N 43°23' W 001°48'0 0.0
2017-Oct-17 04:30N 43°23' W 001°48'0 0.0
2017-Oct-17 04:01N 43°23' W 001°48'0 0.0
2017-Oct-17 03:30N 43°23' W 001°48'0 0.0
2017-Oct-17 03:01N 43°23' W 001°48'0 0.0
2017-Oct-17 02:30N 43°23' W 001°48'0 0.0
2017-Oct-17 02:00N 43°23' W 001°48'0 0.0
2017-Oct-17 01:30N 43°23' W 001°48'0 0.0
2017-Oct-17 01:00N 43°23' W 001°48'0 0.0
2017-Oct-17 00:30N 43°23' W 001°48'0 0.0
2017-Oct-17 00:00N 43°23' W 001°48'0 0.0
2017-Oct-16 23:30N 43°23' W 001°48'0 0.0
2017-Oct-16 23:00N 43°23' W 001°48'0 0.0
2017-Oct-16 22:30N 43°23' W 001°48'0 0.0
2017-Oct-16 22:00N 43°23' W 001°48'0 0.0
2017-Oct-16 21:30N 43°23' W 001°48'0 0.0
2017-Oct-16 21:00N 43°23' W 001°48'0 0.0
2017-Oct-16 20:30N 43°23' W 001°48'0 0.0
2017-Oct-16 20:00N 43°23' W 001°48'0 0.0
2017-Oct-16 19:30N 43°23' W 001°48'0 0.0
2017-Oct-16 19:00N 43°23' W 001°48'1 2.8
2017-Oct-16 18:30N 43°25' W 001°48'510.1
2017-Oct-16 18:00N 43°29' W 001°49'4 8.0
2017-Oct-16 17:31N 43°33' W 001°51'1 2.5
2017-Oct-16 17:01N 43°34' W 001°52'2 3.8
2017-Oct-16 16:30N 43°36' W 001°51'1 2.0
2017-Oct-16 16:01N 43°36' W 001°50'1 1.8
2017-Oct-16 15:31N 43°35' W 001°49'3 6.1
2017-Oct-16 15:01N 43°34' W 001°53'2 1.9
2017-Oct-16 14:01N 43°36' W 001°54'4 8.6
2017-Oct-16 13:30N 43°36' W 001°48'1 1.6
2017-Oct-16 13:01N 43°35' W 001°48'3 5.6
2017-Oct-16 12:31N 43°36' W 001°52'5 9.6
2017-Oct-16 12:00N 43°32' W 001°57'3 6.6
2017-Oct-16 11:30N 43°32' W 002°01'2 4.7
2017-Oct-16 11:01N 43°31' W 002°04'2 3.8
2017-Oct-16 10:31N 43°31' W 002°07'4 8.9
2017-Oct-16 10:01N 43°30' W 002°13'3 6.6
2017-Oct-16 09:31N 43°33' W 002°10'1 2.5
2017-Oct-16 09:01N 43°33' W 002°08'5 9.1
2017-Oct-16 08:31N 43°35' W 002°02'5 9.8
2017-Oct-16 08:00N 43°35' W 001°56'510.2
2017-Oct-16 07:31N 43°37' W 001°49'2 3.2
2017-Oct-16 07:01N 43°36' W 001°50'3 5.6
2017-Oct-16 06:31N 43°33' W 001°49'5 9.2
2017-Oct-16 06:01N 43°28' W 001°48'5 9.1
2017-Oct-16 05:31N 43°24' W 001°47'1 2.1
2017-Oct-16 05:00N 43°23' W 001°47'0 0.0
2017-Oct-16 04:30N 43°23' W 001°48'0 0.0
2017-Oct-16 04:00N 43°23' W 001°48'0 0.1
2017-Oct-16 03:30N 43°23' W 001°47'0 0.0
2017-Oct-16 03:01N 43°23' W 001°47'0 0.2
2017-Oct-16 02:30N 43°23' W 001°48'0 0.0
2017-Oct-16 02:00N 43°23' W 001°48'0 0.0
2017-Oct-16 01:30N 43°23' W 001°48'0 0.0
2017-Oct-16 01:00N 43°23' W 001°48'0 0.0
2017-Oct-16 00:30N 43°23' W 001°48'0 0.0
2017-Oct-16 00:00N 43°23' W 001°48'0 0.0
2017-Oct-15 23:30N 43°23' W 001°48'0 0.0
2017-Oct-15 23:01N 43°23' W 001°48'0 0.0
2017-Oct-15 22:31N 43°23' W 001°48'0 0.0
2017-Oct-15 22:01N 43°23' W 001°48'0 0.0
2017-Oct-15 21:30N 43°23' W 001°48'0 0.0
2017-Oct-15 21:00N 43°23' W 001°48'0 0.0
2017-Oct-15 20:31N 43°23' W 001°48'0 0.0
2017-Oct-15 20:00N 43°23' W 001°48'0 0.0
2017-Oct-15 19:30N 43°23' W 001°48'0 0.0
2017-Oct-15 19:00N 43°23' W 001°48'0 0.0
2017-Oct-15 18:30N 43°23' W 001°48'0 0.0
2017-Oct-15 18:00N 43°23' W 001°48'0 0.0
2017-Oct-15 17:30N 43°23' W 001°48'0 0.0
2017-Oct-15 17:00N 43°23' W 001°48'0 0.0
2017-Oct-15 16:31N 43°23' W 001°48'0 0.0
2017-Oct-15 16:00N 43°23' W 001°48'0 0.0
2017-Oct-15 15:30N 43°23' W 001°48'0 0.0
2017-Oct-15 15:00N 43°23' W 001°48'0 0.0
2017-Oct-15 14:01N 43°23' W 001°48'0 0.0
2017-Oct-15 13:30N 43°23' W 001°48'0 0.0
2017-Oct-15 13:00N 43°23' W 001°48'0 0.0
2017-Oct-15 12:30N 43°23' W 001°48'0 0.0
2017-Oct-15 12:00N 43°23' W 001°48'0 0.0
2017-Oct-15 11:30N 43°23' W 001°48'0 0.0
2017-Oct-15 11:00N 43°23' W 001°48'0 0.0
2017-Oct-15 10:30N 43°23' W 001°48'0 0.0
2017-Oct-15 10:01N 43°23' W 001°48'0 0.0
2017-Oct-15 09:30N 43°23' W 001°48'0 0.0
2017-Oct-15 09:00N 43°23' W 001°48'0 0.0
2017-Oct-15 08:30N 43°23' W 001°48'0 0.0
2017-Oct-15 08:01N 43°23' W 001°48'0 0.0
2017-Oct-15 07:30N 43°23' W 001°48'0 0.0
2017-Oct-15 07:01N 43°23' W 001°48'0 0.0
2017-Oct-15 06:30N 43°23' W 001°48'0 0.0
2017-Oct-15 06:01N 43°23' W 001°48'0 0.0
2017-Oct-15 05:30N 43°23' W 001°48'0 0.0
2017-Oct-15 05:00N 43°23' W 001°48'0 0.0
2017-Oct-15 04:30N 43°23' W 001°48'0 0.0
2017-Oct-15 04:00N 43°23' W 001°48'0 0.0
2017-Oct-15 03:31N 43°23' W 001°48'0 0.0
2017-Oct-15 03:00N 43°23' W 001°48'0 0.0
2017-Oct-15 02:30N 43°23' W 001°48'0 0.0
2017-Oct-15 02:01N 43°23' W 001°48'0 0.0
2017-Oct-15 01:30N 43°23' W 001°48'0 0.0
2017-Oct-15 01:01N 43°23' W 001°48'0 0.0
2017-Oct-15 00:31N 43°23' W 001°48'0 0.0
2017-Oct-15 00:00N 43°23' W 001°48'0 0.0
2017-Oct-14 23:30N 43°23' W 001°48'0 0.0
2017-Oct-14 23:00N 43°23' W 001°48'0 0.0
2017-Oct-14 22:31N 43°23' W 001°48'0 0.0
2017-Oct-14 22:01N 43°23' W 001°48'0 0.0
2017-Oct-14 21:31N 43°23' W 001°48'0 0.0
2017-Oct-14 21:00N 43°23' W 001°48'0 0.0
2017-Oct-14 20:30N 43°23' W 001°48'0 0.0
2017-Oct-14 20:00N 43°23' W 001°48'0 0.0
2017-Oct-14 19:30N 43°23' W 001°48'0 0.0
2017-Oct-14 19:01N 43°23' W 001°48'0 0.0
2017-Oct-14 18:30N 43°23' W 001°48'0 0.0
2017-Oct-14 18:00N 43°23' W 001°48'0 0.0
2017-Oct-14 17:30N 43°23' W 001°48'0 0.0
2017-Oct-14 17:00N 43°23' W 001°48'0 0.0
2017-Oct-14 16:30N 43°23' W 001°48'0 0.0
2017-Oct-14 16:01N 43°23' W 001°48'0 0.0
2017-Oct-14 15:30N 43°23' W 001°48'0 0.0
2017-Oct-14 15:01N 43°23' W 001°48'0 0.0
2017-Oct-14 14:31N 43°23' W 001°48'0 0.0
2017-Oct-14 14:00N 43°23' W 001°48'0 0.0
2017-Oct-14 13:30N 43°23' W 001°48'0 0.0
2017-Oct-14 13:00N 43°23' W 001°48'0 0.0
2017-Oct-14 12:30N 43°23' W 001°48'0 0.0
2017-Oct-14 11:59N 43°23' W 001°48'0 0.0
2017-Oct-14 11:31N 43°23' W 001°48'0 0.0
2017-Oct-14 11:00N 43°23' W 001°48'0 0.0
2017-Oct-14 10:30N 43°23' W 001°48'0 0.0
2017-Oct-14 10:00N 43°23' W 001°48'0 0.0
2017-Oct-14 09:31N 43°23' W 001°48'0 0.0
2017-Oct-14 09:01N 43°23' W 001°48'0 0.0
2017-Oct-14 08:30N 43°23' W 001°48'0 0.0
2017-Oct-14 08:01N 43°23' W 001°48'0 0.0
2017-Oct-14 07:30N 43°23' W 001°48'1 2.0
2017-Oct-14 07:01N 43°24' W 001°48'5 9.9
2017-Oct-14 06:31N 43°23' W 001°54'5 9.6
2017-Oct-14 06:01N 43°21' W 002°01'5 9.5
2017-Oct-14 05:31N 43°20' W 002°07'4 7.1
2017-Oct-14 05:01N 43°19' W 002°11'0 0.1
2017-Oct-14 04:30N 43°19' W 002°12'0 0.1
2017-Oct-14 04:00N 43°19' W 002°12'0 0.1
2017-Oct-14 03:30N 43°19' W 002°11'0 0.1
2017-Oct-14 03:00N 43°19' W 002°11'0 0.2
2017-Oct-14 02:30N 43°19' W 002°11'0 0.1
2017-Oct-14 02:00N 43°19' W 002°11'0 0.3
2017-Oct-14 01:30N 43°19' W 002°11'0 0.1
2017-Oct-14 01:01N 43°19' W 002°11'0 0.0
2017-Oct-14 00:30N 43°19' W 002°11'0 0.0
2017-Oct-14 00:00N 43°19' W 002°11'0 0.1
2017-Oct-13 23:31N 43°19' W 002°11'0 0.0
2017-Oct-13 23:01N 43°19' W 002°11'0 0.0
2017-Oct-13 22:31N 43°19' W 002°11'0 0.0
2017-Oct-13 22:00N 43°19' W 002°11'0 0.0
2017-Oct-13 21:31N 43°19' W 002°11'0 0.0
2017-Oct-13 21:00N 43°19' W 002°11'0 0.0
2017-Oct-13 20:30N 43°19' W 002°11'0 0.0
2017-Oct-13 20:00N 43°19' W 002°11'0 0.0
2017-Oct-13 19:31N 43°19' W 002°11'0 0.0
2017-Oct-13 19:01N 43°19' W 002°11'0 0.0
2017-Oct-13 18:30N 43°19' W 002°11'0 0.0
2017-Oct-13 18:00N 43°19' W 002°11'0 0.0
2017-Oct-13 17:31N 43°19' W 002°11'0 0.0
2017-Oct-13 17:01N 43°19' W 002°11'0 0.0
2017-Oct-13 16:31N 43°19' W 002°11'0 0.0
2017-Oct-13 16:01N 43°19' W 002°11'0 0.0
2017-Oct-13 15:31N 43°19' W 002°11'0 0.1
2017-Oct-13 15:01N 43°19' W 002°11'4 9.0
2017-Oct-13 14:30N 43°22' W 002°07'5 9.7
2017-Oct-13 14:01N 43°26' W 002°04'4 9.0
2017-Oct-13 13:31N 43°31' W 002°02'4 7.9
2017-Oct-13 13:01N 43°34' W 002°04'510.2
2017-Oct-13 12:30N 43°39' W 002°08'1 1.5
2017-Oct-13 12:01N 43°38' W 002°07'5 9.5
2017-Oct-13 11:31N 43°33' W 002°06'5 9.7
2017-Oct-13 11:01N 43°34' W 001°60'4 7.3
2017-Oct-13 10:31N 43°32' W 001°55'4 8.1
2017-Oct-13 10:00N 43°29' W 001°58'1 2.7
2017-Oct-13 09:30N 43°30' W 001°59'2 4.6
2017-Oct-13 09:01N 43°32' W 001°58'1 1.7
2017-Oct-13 08:31N 43°32' W 001°59'1 2.6
2017-Oct-13 08:01N 43°34' W 001°60'2 4.8
2017-Oct-13 07:31N 43°35' W 002°02'2 3.5
2017-Oct-13 07:01N 43°34' W 002°00'5 9.7
2017-Oct-13 06:31N 43°30' W 001°58'5 9.8
2017-Oct-13 06:01N 43°27' W 001°52'5 9.9
2017-Oct-13 05:31N 43°24' W 001°47'1 2.2
2017-Oct-13 05:01N 43°23' W 001°47'4 8.2
2017-Oct-13 04:31N 43°25' W 001°52'2 3.9
2017-Oct-13 04:00N 43°25' W 001°55'0 0.2
2017-Oct-13 03:31N 43°25' W 001°55'1 2.4
2017-Oct-13 03:00N 43°25' W 001°53'0 0.4
2017-Oct-13 02:30N 43°26' W 001°53'0 0.3
2017-Oct-13 02:00N 43°25' W 001°53'4 9.0
2017-Oct-13 01:31N 43°24' W 001°47'1 1.7
2017-Oct-13 01:00N 43°23' W 001°48'0 0.0
2017-Oct-13 00:30N 43°23' W 001°48'0 0.0
2017-Oct-13 00:00N 43°23' W 001°48'0 0.0
2017-Oct-12 23:29N 43°23' W 001°48'0 0.0
2017-Oct-12 23:00N 43°23' W 001°48'0 0.0
2017-Oct-12 22:30N 43°23' W 001°48'0 0.0
2017-Oct-12 22:00N 43°23' W 001°48'1 1.4
2017-Oct-12 21:31N 43°24' W 001°47'510.9
2017-Oct-12 21:01N 43°27' W 001°52'510.9
2017-Oct-12 20:31N 43°31' W 001°58'510.5
2017-Oct-12 20:00N 43°35' W 002°03'510.5
2017-Oct-12 19:31N 43°39' W 002°07'510.6
2017-Oct-12 19:01N 43°43' W 002°12'510.6
2017-Oct-12 18:31N 43°47' W 002°17'510.5
2017-Oct-12 18:01N 43°51' W 002°22'510.4
2017-Oct-12 17:31N 43°55' W 002°26'510.3
2017-Oct-12 17:00N 43°59' W 002°31'5 9.9
2017-Oct-12 16:31N 44°03' W 002°35'4 8.0
2017-Oct-12 16:00N 44°06' W 002°38'510.1
2017-Oct-12 15:30N 44°10' W 002°43'510.3
2017-Oct-12 15:01N 44°14' W 002°47'510.4
2017-Oct-12 14:30N 44°18' W 002°52'510.3
2017-Oct-12 14:00N 44°22' W 002°56'  

Dump ship's entire track history